Time;durP1;ratioP1;P1;durP2;ratioP2;P2;SDS_P1;SDS_P2;PMS_P1;PMS_P2;Temp;Humidity;BMP_temperature;BMP_pressure;BME280_temperature;BME280_humidity;BME280_pressure;Samples;Min_cycle;Max_cycle;Signal;HPM_P1;HPM_P2
2022/07/15 00:00:41;;;;;;;9.30;9.00;;;18.80;99.90;;;;;;5124565;28;20254;-80
2022/07/15 00:03:10;;;;;;;9.20;8.90;;;18.80;99.90;;;;;;5124707;28;20232;-80
2022/07/15 00:05:40;;;;;;;9.30;9.00;;;18.70;99.90;;;;;;5124594;28;20228;-80
2022/07/15 00:08:21;;;;;;;9.30;9.00;;;18.60;99.90;;;;;;5124904;28;20315;-80
2022/07/15 00:10:49;;;;;;;9.27;8.98;;;18.40;99.90;;;;;;5124593;28;20237;-80
2022/07/15 00:13:16;;;;;;;9.50;9.20;;;18.40;99.90;;;;;;5124591;28;20260;-80
2022/07/15 00:15:46;;;;;;;9.40;9.10;;;18.40;99.90;;;;;;5138528;28;20213;-80
2022/07/15 00:18:15;;;;;;;9.40;9.10;;;18.40;99.90;;;;;;5132118;28;20321;-80
2022/07/15 00:20:45;;;;;;;9.30;9.00;;;18.30;99.90;;;;;;5128085;28;20263;-80
2022/07/15 00:23:26;;;;;;;9.43;9.13;;;18.20;99.90;;;;;;5127047;28;20217;-80
2022/07/15 00:25:54;;;;;;;9.43;9.13;;;18.20;99.90;;;;;;5125092;28;20260;-80
2022/07/15 00:28:24;;;;;;;9.43;9.13;;;18.00;99.90;;;;;;5124917;28;20229;-80
2022/07/15 00:30:51;;;;;;;9.30;9.00;;;17.80;99.90;;;;;;5125423;28;20229;-80
2022/07/15 00:33:21;;;;;;;9.63;9.32;;;17.60;99.90;;;;;;5125265;28;20256;-81
2022/07/15 00:35:50;;;;;;;9.27;8.98;;;17.60;99.90;;;;;;5123441;28;20225;-81
2022/07/15 00:41:07;;;;;;;9.30;9.00;;;17.50;99.90;;;;;;5123208;28;20220;-81
2022/07/15 00:43:34;;;;;;;9.25;8.95;;;17.50;99.90;;;;;;5124739;22;20304;-76
2022/07/15 00:46:01;;;;;;;9.15;8.88;;;17.50;99.90;;;;;;5103184;28;20315;-78
2022/07/15 00:48:29;;;;;;;9.18;8.88;;;17.50;99.90;;;;;;5075153;28;20294;-78
2022/07/15 00:50:57;;;;;;;9.00;8.80;;;17.50;99.90;;;;;;5075389;28;20261;-77
2022/07/15 00:53:29;;;;;;;8.80;8.60;;;17.60;99.90;;;;;;5101367;28;20229;-78
2022/07/15 00:56:03;;;;;;;8.85;8.65;;;17.60;99.90;;;;;;5116094;28;20569;-77
2022/07/15 00:58:35;;;;;;;8.98;8.77;;;17.50;99.90;;;;;;5096687;28;20268;-77
2022/07/15 01:01:03;;;;;;;9.00;8.80;;;17.50;99.90;;;;;;5099185;28;20221;-77
2022/07/15 01:03:35;;;;;;;8.80;8.60;;;17.40;99.90;;;;;;5100234;28;20264;-78
2022/07/15 01:06:05;;;;;;;8.98;8.77;;;17.40;99.90;;;;;;5101543;28;20228;-77
2022/07/15 01:08:44;;;;;;;9.00;8.80;;;17.30;99.90;;;;;;5105838;28;20276;-78
2022/07/15 01:11:13;;;;;;;9.20;8.90;;;17.30;99.90;;;;;;5102728;28;20236;-78
2022/07/15 01:13:41;;;;;;;8.95;8.75;;;17.30;99.90;;;;;;5108264;28;20221;-76
2022/07/15 01:16:08;;;;;;;9.00;8.80;;;17.20;99.90;;;;;;5121271;27;20209;-77
2022/07/15 01:18:36;;;;;;;9.00;8.80;;;17.20;99.90;;;;;;5119979;28;20225;-77
2022/07/15 01:21:05;;;;;;;8.80;8.60;;;17.10;99.90;;;;;;5122218;27;20243;-77
2022/07/15 01:23:33;;;;;;;9.00;8.80;;;17.10;99.90;;;;;;5121449;27;20255;-77
2022/07/15 01:26:01;;;;;;;8.93;8.73;;;17.20;99.90;;;;;;5120153;28;20236;-77
2022/07/15 01:28:28;;;;;;;9.05;8.85;;;17.10;99.90;;;;;;5110504;28;20252;-77
2022/07/15 01:30:56;;;;;;;9.48;9.18;;;17.10;99.90;;;;;;5121193;27;20229;-78
2022/07/15 01:33:23;;;;;;;9.30;9.00;;;17.10;99.90;;;;;;5109234;28;20283;-77
2022/07/15 01:35:51;;;;;;;8.95;8.75;;;17.00;99.90;;;;;;5099714;28;20234;-78
2022/07/15 01:38:20;;;;;;;9.30;9.00;;;17.00;99.90;;;;;;5099575;28;20288;-77
2022/07/15 01:40:47;;;;;;;9.30;9.00;;;16.90;99.90;;;;;;5099465;28;20312;-78
2022/07/15 01:43:15;;;;;;;9.27;8.98;;;16.80;99.90;;;;;;5098981;28;20233;-78
2022/07/15 01:45:44;;;;;;;9.13;8.85;;;16.70;99.90;;;;;;5098776;28;20250;-78
2022/07/15 01:49:21;;;;;;;9.30;9.00;;;16.60;99.90;;;;;;5098154;28;20241;-77
2022/07/15 01:51:01;;;;;;;8.80;8.60;;;16.60;99.90;;;;;;5097787;28;20236;-77
2022/07/15 01:53:31;;;;;;;8.90;8.70;;;16.50;99.90;;;;;;5097394;28;20284;-77
2022/07/15 01:55:58;;;;;;;9.00;8.80;;;16.50;99.90;;;;;;5097746;28;20455;-78
2022/07/15 01:59:22;;;;;;;9.00;8.80;;;16.50;99.90;;;;;;5099494;28;20225;-77
2022/07/15 02:02:28;;;;;;;8.80;8.60;;;16.40;99.90;;;;;;5042976;28;20286;-78
2022/07/15 02:04:55;;;;;;;8.60;8.40;;;16.40;99.90;;;;;;5098741;28;20237;-77
2022/07/15 02:07:23;;;;;;;8.70;8.50;;;16.40;99.90;;;;;;5098330;28;20226;-78
2022/07/15 02:09:52;;;;;;;8.90;8.70;;;16.30;99.90;;;;;;5098631;28;20287;-78
2022/07/15 02:12:22;;;;;;;8.90;8.70;;;16.20;99.90;;;;;;5100300;28;20244;-77
2022/07/15 02:14:50;;;;;;;8.93;8.73;;;16.20;99.90;;;;;;5106895;28;20237;-77
2022/07/15 02:18:10;;;;;;;9.43;9.13;;;16.10;99.90;;;;;;5099693;28;20237;-77
2022/07/15 02:20:41;;;;;;;9.32;9.02;;;16.10;99.90;;;;;;5098880;28;20225;-77
2022/07/15 02:23:09;;;;;;;9.35;9.05;;;16.00;99.90;;;;;;5097748;28;20333;-77
2022/07/15 02:25:38;;;;;;;9.02;8.82;;;15.90;99.90;;;;;;5098114;28;20229;-78
2022/07/15 02:28:07;;;;;;;9.15;8.90;;;15.80;99.90;;;;;;5098183;28;20226;-77
2022/07/15 02:30:38;;;;;;;9.27;8.98;;;15.70;99.90;;;;;;5097830;28;20233;-77
2022/07/15 02:33:07;;;;;;;8.90;8.70;;;15.60;99.90;;;;;;5097243;28;20248;-77
2022/07/15 02:35:35;;;;;;;8.95;8.75;;;15.50;99.90;;;;;;5097228;28;20293;-77
2022/07/15 02:38:14;;;;;;;8.90;8.70;;;15.50;99.90;;;;;;5097163;28;20244;-78
2022/07/15 02:40:43;;;;;;;8.70;8.50;;;15.40;99.90;;;;;;5097902;28;20272;-77
2022/07/15 02:43:11;;;;;;;8.90;8.70;;;15.40;99.90;;;;;;5099047;28;20272;-77
2022/07/15 02:45:39;;;;;;;8.80;8.60;;;15.30;99.90;;;;;;5098396;28;20306;-78
2022/07/15 02:48:09;;;;;;;8.40;8.20;;;15.30;99.90;;;;;;5098133;28;20220;-77
2022/07/15 02:50:39;;;;;;;8.60;8.40;;;15.30;99.90;;;;;;5098383;28;20316;-78
2022/07/15 02:53:07;;;;;;;8.50;8.30;;;15.20;99.90;;;;;;5099302;28;20238;-77
2022/07/15 02:55:34;;;;;;;8.20;8.00;;;15.20;99.90;;;;;;5101298;28;20264;-77
2022/07/15 02:58:03;;;;;;;9.45;9.15;;;15.20;99.90;;;;;;5103283;28;20309;-77
2022/07/15 03:00:32;;;;;;;9.50;9.20;;;15.20;99.90;;;;;;5102621;28;20229;-77
2022/07/15 03:03:00;;;;;;;9.43;9.13;;;15.10;99.90;;;;;;5098821;28;20238;-78
2022/07/15 03:05:28;;;;;;;9.70;9.40;;;15.10;99.90;;;;;;5097613;28;20324;-77
2022/07/15 03:07:55;;;;;;;9.50;9.20;;;15.10;99.90;;;;;;5097365;28;20230;-78
2022/07/15 03:10:23;;;;;;;9.48;9.18;;;15.10;99.90;;;;;;5097434;28;20302;-78
2022/07/15 03:12:50;;;;;;;9.60;9.30;;;15.10;99.90;;;;;;5097131;28;20237;-77
2022/07/15 03:15:19;;;;;;;9.55;9.25;;;15.00;99.90;;;;;;5097294;28;20233;-77
2022/07/15 03:17:47;;;;;;;10.00;9.70;;;15.00;99.90;;;;;;5097177;28;20701;-77
2022/07/15 03:20:14;;;;;;;9.80;9.50;;;15.00;99.90;;;;;;5098125;28;20301;-77
2022/07/15 03:22:42;;;;;;;9.57;9.27;;;15.00;99.90;;;;;;5103817;28;20286;-77
2022/07/15 03:25:10;;;;;;;9.70;9.40;;;14.90;99.90;;;;;;5109807;28;20267;-77
2022/07/15 03:27:37;;;;;;;9.60;9.30;;;14.90;99.90;;;;;;5112776;28;20222;-77
2022/07/15 03:30:06;;;;;;;9.20;8.90;;;14.80;99.90;;;;;;5112673;28;20238;-77
2022/07/15 03:32:35;;;;;;;9.57;9.27;;;14.80;99.90;;;;;;5111764;28;20249;-77
2022/07/15 03:35:05;;;;;;;9.32;9.02;;;14.80;99.90;;;;;;5109420;28;20261;-77
2022/07/15 03:37:34;;;;;;;9.50;9.20;;;14.70;99.90;;;;;;5108860;28;20253;-76
2022/07/15 03:40:01;;;;;;;9.30;9.00;;;14.70;99.90;;;;;;5109118;28;20226;-78
2022/07/15 03:42:29;;;;;;;9.27;8.98;;;14.60;99.90;;;;;;5109156;28;20237;-77
2022/07/15 03:44:59;;;;;;;9.32;9.02;;;14.50;99.90;;;;;;5110850;28;20217;-78
2022/07/15 03:47:28;;;;;;;9.27;8.98;;;14.50;99.90;;;;;;5110077;28;20226;-77
2022/07/15 03:49:57;;;;;;;9.30;9.00;;;14.40;99.90;;;;;;5107311;28;20240;-77
2022/07/15 03:52:25;;;;;;;9.20;8.90;;;14.40;99.90;;;;;;5106007;28;20233;-77
2022/07/15 03:54:52;;;;;;;9.15;8.85;;;14.40;99.90;;;;;;5106232;28;20225;-77
2022/07/15 03:57:20;;;;;;;9.00;8.80;;;14.40;99.90;;;;;;5105688;28;20229;-77
2022/07/15 03:59:47;;;;;;;9.32;9.02;;;14.40;99.90;;;;;;5104374;28;20289;-78
2022/07/15 04:02:15;;;;;;;9.38;9.07;;;14.40;99.90;;;;;;5108947;28;20233;-77
2022/07/15 04:04:43;;;;;;;9.60;9.30;;;14.30;99.90;;;;;;5112199;28;20217;-77
2022/07/15 04:07:12;;;;;;;9.50;9.20;;;14.30;99.90;;;;;;5108401;28;20248;-77
2022/07/15 04:09:39;;;;;;;9.85;9.55;;;14.20;99.90;;;;;;5106483;28;20229;-77
2022/07/15 04:12:07;;;;;;;9.68;9.38;;;14.20;99.90;;;;;;5098685;28;20253;-79
2022/07/15 04:14:34;;;;;;;9.55;9.25;;;14.10;99.90;;;;;;5098195;28;20234;-79
2022/07/15 04:17:02;;;;;;;9.60;9.30;;;14.00;99.90;;;;;;5098566;28;20229;-78
2022/07/15 04:19:30;;;;;;;9.60;9.30;;;13.90;99.90;;;;;;5098138;28;20260;-78
2022/07/15 04:21:57;;;;;;;9.60;9.30;;;13.90;99.90;;;;;;5097565;28;20252;-78
2022/07/15 04:24:26;;;;;;;9.60;9.30;;;13.90;99.90;;;;;;5097326;28;20237;-78
2022/07/15 04:26:54;;;;;;;9.60;9.30;;;13.90;99.90;;;;;;5098386;28;20259;-77
2022/07/15 04:29:24;;;;;;;9.57;9.27;;;13.90;99.90;;;;;;5097601;28;20225;-78
2022/07/15 04:31:51;;;;;;;9.60;9.30;;;14.00;99.90;;;;;;5097388;28;20237;-78
2022/07/15 04:34:19;;;;;;;9.60;9.30;;;14.00;99.90;;;;;;5097434;28;20320;-78
2022/07/15 04:36:46;;;;;;;9.65;9.35;;;14.10;99.90;;;;;;5100860;28;20237;-78
2022/07/15 04:39:14;;;;;;;9.77;9.48;;;14.10;99.90;;;;;;5100695;28;20264;-78
2022/07/15 04:41:43;;;;;;;9.57;9.27;;;14.30;99.90;;;;;;5102036;28;20233;-78
2022/07/15 04:44:10;;;;;;;9.63;9.32;;;14.30;99.90;;;;;;5100376;28;20252;-78
2022/07/15 04:46:38;;;;;;;9.63;9.32;;;14.40;99.90;;;;;;5100222;28;20319;-78
2022/07/15 04:51:50;;;;;;;9.80;9.50;;;14.50;99.90;;;;;;5100846;28;20225;-79
2022/07/15 04:54:18;;;;;;;9.68;9.38;;;14.60;99.90;;;;;;5100652;28;20256;-78
2022/07/15 04:56:47;;;;;;;9.60;9.30;;;14.70;99.90;;;;;;5100284;28;20237;-78
2022/07/15 04:59:14;;;;;;;9.60;9.30;;;14.80;99.90;;;;;;5099788;28;20324;-78
2022/07/15 05:01:42;;;;;;;9.70;9.40;;;14.80;99.90;;;;;;5100152;28;20260;-78
2022/07/15 05:04:11;;;;;;;10.07;9.77;;;15.00;99.90;;;;;;5099872;28;20380;-78
2022/07/15 05:06:39;;;;;;;9.68;9.38;;;15.00;99.90;;;;;;5099299;28;20236;-78
2022/07/15 05:09:06;;;;;;;9.80;9.50;;;15.10;99.90;;;;;;5099521;28;20237;-78
2022/07/15 05:11:41;;;;;;;9.90;9.60;;;15.10;99.90;;;;;;5099643;28;20234;-78
2022/07/15 05:14:13;;;;;;;9.93;9.63;;;15.20;99.90;;;;;;5099347;28;20348;-78
2022/07/15 05:16:51;;;;;;;9.70;9.40;;;15.30;99.90;;;;;;5099111;28;20284;-78
2022/07/15 05:19:19;;;;;;;9.98;9.68;;;15.40;99.90;;;;;;5113539;27;20416;-78
2022/07/15 05:21:46;;;;;;;9.90;9.60;;;15.60;99.90;;;;;;5140138;27;20228;-78
2022/07/15 05:24:14;;;;;;;9.70;9.40;;;15.80;99.90;;;;;;5140000;27;20228;-78
2022/07/15 05:26:41;;;;;;;9.88;9.57;;;16.00;99.90;;;;;;5141064;27;20223;-79
2022/07/15 05:29:10;;;;;;;10.00;9.70;;;16.10;99.90;;;;;;5142702;27;20287;-78
2022/07/15 05:31:38;;;;;;;10.15;9.85;;;16.20;99.90;;;;;;5143278;27;20224;-79
2022/07/15 05:34:05;;;;;;;10.30;10.00;;;16.30;99.90;;;;;;5142793;27;20319;-80
2022/07/15 05:36:33;;;;;;;10.15;9.85;;;16.50;99.90;;;;;;5142509;27;20271;-80
2022/07/15 05:39:01;;;;;;;10.00;9.70;;;16.60;99.90;;;;;;5142582;27;20232;-79
2022/07/15 05:41:30;;;;;;;10.50;10.20;;;16.70;99.90;;;;;;5143976;27;20319;-80
2022/07/15 05:43:58;;;;;;;10.20;9.90;;;16.80;99.90;;;;;;5141712;27;20231;-78
2022/07/15 05:46:27;;;;;;;10.20;9.90;;;16.90;99.90;;;;;;5140054;27;20224;-78
2022/07/15 05:48:54;;;;;;;10.10;9.80;;;17.00;99.90;;;;;;5140055;27;20228;-78
2022/07/15 05:51:22;;;;;;;10.13;9.82;;;17.20;99.90;;;;;;5141750;27;20285;-80
2022/07/15 05:53:49;;;;;;;10.15;9.85;;;17.30;99.90;;;;;;5141278;27;20258;-79
2022/07/15 05:56:17;;;;;;;10.07;9.77;;;17.40;99.90;;;;;;5140727;27;20288;-80
2022/07/15 05:58:44;;;;;;;10.18;9.88;;;17.50;99.90;;;;;;5115077;27;20235;-79
2022/07/15 06:01:12;;;;;;;10.13;9.82;;;17.60;99.90;;;;;;5109958;28;20229;-78
2022/07/15 06:03:42;;;;;;;10.02;9.73;;;17.70;99.90;;;;;;5106922;28;20235;-80
2022/07/15 06:06:10;;;;;;;10.20;9.90;;;17.80;99.90;;;;;;5134969;27;20220;-78
2022/07/15 06:08:37;;;;;;;10.50;10.20;;;17.90;99.90;;;;;;5139479;27;20314;-80
2022/07/15 06:11:05;;;;;;;10.57;10.27;;;17.90;99.90;;;;;;5123984;27;20255;-79
2022/07/15 06:13:32;;;;;;;10.60;10.30;;;18.00;99.90;;;;;;5140632;27;20232;-79
2022/07/15 06:16:00;;;;;;;10.23;9.93;;;18.20;99.90;;;;;;5139295;27;20296;-78
2022/07/15 06:18:27;;;;;;;10.25;9.95;;;18.40;99.90;;;;;;5137215;27;20230;-78
2022/07/15 06:20:56;;;;;;;10.50;10.20;;;18.50;99.90;;;;;;5127143;28;20319;-76
2022/07/15 06:23:26;;;;;;;10.60;10.30;;;18.60;99.90;;;;;;5103744;28;20262;-76
2022/07/15 06:25:55;;;;;;;10.40;10.10;;;18.50;99.90;;;;;;5116812;28;20231;-76
2022/07/15 06:28:23;;;;;;;10.63;10.32;;;18.70;99.90;;;;;;5113505;28;20226;-76
2022/07/15 06:30:51;;;;;;;10.40;10.10;;;18.70;99.90;;;;;;5111987;28;20228;-77
2022/07/15 06:33:20;;;;;;;10.40;10.10;;;18.90;99.90;;;;;;5115434;28;20259;-76
2022/07/15 06:35:47;;;;;;;10.30;10.00;;;19.00;99.90;;;;;;5114905;27;20224;-77
2022/07/15 06:38:17;;;;;;;10.35;10.05;;;19.10;99.90;;;;;;5137080;27;20256;-77
2022/07/15 06:40:45;;;;;;;10.45;10.15;;;19.00;99.90;;;;;;5136882;27;20228;-77
2022/07/15 06:43:12;;;;;;;10.45;10.15;;;19.10;99.90;;;;;;5129452;27;20241;-77
2022/07/15 06:45:40;;;;;;;10.50;10.20;;;19.20;99.90;;;;;;5106412;22;20228;-84
2022/07/15 06:48:08;;;;;;;10.65;10.35;;;19.40;99.90;;;;;;5084167;28;20226;-84
2022/07/15 06:50:35;;;;;;;10.77;10.48;;;19.50;99.90;;;;;;5083712;28;20256;-83
2022/07/15 06:53:03;;;;;;;11.05;10.75;;;19.50;99.90;;;;;;5082668;28;20249;-83
2022/07/15 06:55:35;;;;;;;10.82;10.52;;;19.50;99.90;;;;;;5083063;28;20226;-84
2022/07/15 07:00:49;;;;;;;10.60;10.30;;;19.50;99.90;;;;;;5069639;28;20308;-84
2022/07/15 07:03:18;;;;;;;10.60;10.30;;;19.50;99.90;;;;;;5065059;28;20227;-85
2022/07/15 07:05:47;;;;;;;10.50;10.20;;;19.50;99.90;;;;;;5063162;28;20219;-85
2022/07/15 07:08:17;;;;;;;10.70;10.40;;;19.50;99.90;;;;;;5062302;28;20280;-85
2022/07/15 07:10:49;;;;;;;10.73;10.43;;;19.60;99.90;;;;;;5071229;28;20243;-85
2022/07/15 07:13:18;;;;;;;10.88;10.57;;;19.70;99.90;;;;;;5082346;28;20238;-85
2022/07/15 07:15:48;;;;;;;10.52;10.23;;;19.70;99.90;;;;;;5083498;28;20234;-86
2022/07/15 07:18:18;;;;;;;10.68;10.38;;;19.80;99.90;;;;;;5083229;28;20230;-85
2022/07/15 07:20:46;;;;;;;10.50;10.20;;;20.00;99.90;;;;;;5084075;28;20258;-84
2022/07/15 07:23:15;;;;;;;10.60;10.30;;;20.00;99.90;;;;;;5084556;28;20238;-85
2022/07/15 07:25:45;;;;;;;10.77;10.48;;;19.90;99.90;;;;;;5066166;28;20231;-86
2022/07/15 07:28:23;;;;;;;10.60;10.30;;;20.00;99.90;;;;;;5050239;28;20232;-85
2022/07/15 07:30:54;;;;;;;10.30;10.00;;;19.90;99.90;;;;;;5058685;28;20221;-86
2022/07/15 07:33:22;;;;;;;10.73;10.43;;;20.00;99.90;;;;;;5083525;28;20229;-85
2022/07/15 07:35:51;;;;;;;10.70;10.40;;;20.10;99.90;;;;;;5082717;28;20232;-84
2022/07/15 07:38:21;;;;;;;10.50;10.20;;;20.20;99.90;;;;;;5083216;28;20308;-85
2022/07/15 07:40:50;;;;;;;10.60;10.30;;;20.20;99.90;;;;;;5060000;28;20277;-85
2022/07/15 07:43:29;;;;;;;10.65;10.35;;;20.30;99.90;;;;;;5062918;28;20223;-85
2022/07/15 07:45:59;;;;;;;10.57;10.27;;;20.30;99.90;;;;;;5061805;28;20254;-86
2022/07/15 07:48:29;;;;;;;10.65;10.35;;;20.40;99.90;;;;;;5063223;28;20251;-85
2022/07/15 07:51:08;;;;;;;10.70;10.40;;;20.60;99.90;;;;;;5069186;28;20237;-86
2022/07/15 07:56:32;;;;;;;10.18;9.88;;;20.70;99.90;;;;;;5080670;28;20222;-86
2022/07/15 07:59:03;;;;;;;10.43;10.13;;;20.70;99.90;;;;;;5070423;28;20293;-87
2022/07/15 08:01:40;;;;;;;10.45;10.15;;;20.80;99.90;;;;;;5041730;28;20234;-89
2022/07/15 08:04:08;;;;;;;10.90;10.60;;;20.90;99.90;;;;;;5051654;28;20233;-86
2022/07/15 08:06:38;;;;;;;10.52;10.23;;;21.00;99.90;;;;;;5069953;28;20235;-86
2022/07/15 08:09:07;;;;;;;10.60;10.30;;;21.00;99.90;;;;;;5060971;28;20227;-86
2022/07/15 08:11:37;;;;;;;10.80;10.50;;;21.00;99.90;;;;;;5061345;28;20230;-86
2022/07/15 08:14:08;;;;;;;10.63;10.32;;;21.00;99.90;;;;;;5061988;28;20231;-86
2022/07/15 08:16:37;;;;;;;10.60;10.30;;;20.90;99.90;;;;;;5081956;28;20218;-85
2022/07/15 08:19:04;;;;;;;10.18;9.88;;;20.90;99.90;;;;;;5074925;28;20230;-85
2022/07/15 08:21:34;;;;;;;10.13;9.82;;;21.00;99.90;;;;;;5084752;28;20237;-86
2022/07/15 08:24:03;;;;;;;9.95;9.65;;;21.20;99.90;;;;;;5076731;28;20235;-86
2022/07/15 08:26:33;;;;;;;10.48;10.18;;;21.10;99.90;;;;;;5063150;28;20242;-87
2022/07/15 08:29:02;;;;;;;10.15;9.85;;;21.10;99.90;;;;;;5070129;28;20241;-86
2022/07/15 08:31:41;;;;;;;10.10;9.80;;;21.00;99.90;;;;;;5060721;28;20277;-87
2022/07/15 08:34:10;;;;;;;10.50;10.20;;;21.00;99.90;;;;;;5060451;28;20246;-87
2022/07/15 08:36:40;;;;;;;10.52;10.23;;;21.10;99.90;;;;;;5059988;28;20230;-86
2022/07/15 08:39:09;;;;;;;10.50;10.20;;;21.10;99.90;;;;;;5060217;28;20236;-87
2022/07/15 08:41:38;;;;;;;11.00;10.70;;;21.20;99.90;;;;;;5065068;28;20295;-87
2022/07/15 08:44:08;;;;;;;11.00;10.70;;;21.20;99.90;;;;;;5067393;28;20258;-87
2022/07/15 08:46:47;;;;;;;11.13;10.82;;;21.50;99.90;;;;;;5073038;28;20210;-87
2022/07/15 08:49:18;;;;;;;11.48;11.18;;;21.90;99.90;;;;;;5059182;28;20231;-87
2022/07/15 08:51:53;;;;;;;11.15;10.85;;;22.30;99.90;;;;;;5060361;28;20237;-87
2022/07/15 08:54:24;;;;;;;11.07;10.77;;;22.60;99.90;;;;;;5059626;28;20296;-88
2022/07/15 08:56:53;;;;;;;11.32;11.02;;;22.90;99.90;;;;;;5048939;28;20246;-87
2022/07/15 08:59:22;;;;;;;11.23;10.93;;;22.60;99.90;;;;;;5054226;28;20313;-82
2022/07/15 09:02:00;;;;;;;11.10;10.80;;;22.20;99.90;;;;;;5084032;28;20234;-83
2022/07/15 09:04:30;;;;;;;11.00;10.70;;;22.10;99.90;;;;;;5083683;28;20238;-83
2022/07/15 09:09:46;;;;;;;10.95;10.65;;;22.50;99.90;;;;;;5098343;28;20241;-79
2022/07/15 09:12:16;;;;;;;10.88;10.57;;;22.60;99.90;;;;;;5099304;28;20245;-80
2022/07/15 09:14:47;;;;;;;10.90;10.60;;;22.60;99.90;;;;;;5098662;28;20218;-80
2022/07/15 09:17:35;;;;;;;10.98;10.68;;;22.80;99.90;;;;;;5098748;28;20206;-81
2022/07/15 09:20:14;;;;;;;11.20;10.90;;;22.90;99.90;;;;;;5089668;28;20256;-82
2022/07/15 09:22:55;;;;;;;10.98;10.68;;;23.10;99.90;;;;;;5090637;28;20236;-83
2022/07/15 09:25:33;;;;;;;10.98;10.68;;;23.50;99.90;;;;;;5090889;28;20234;-82
2022/07/15 09:33:43;;;;;;;10.75;10.45;;;23.80;99.90;;;;;;5089213;28;20210;-83
2022/07/15 09:36:20;;;;;;;10.68;10.38;;;23.90;99.90;;;;;;5088281;28;20210;-83
2022/07/15 09:38:50;;;;;;;10.90;10.60;;;23.70;99.90;;;;;;5088397;28;20217;-83
2022/07/15 09:41:36;;;;;;;10.70;10.40;;;23.60;99.90;;;;;;5087754;28;20226;-83
2022/07/15 09:44:06;;;;;;;11.15;10.85;;;23.60;99.90;;;;;;5085984;28;20245;-82
2022/07/15 09:46:47;;;;;;;11.00;10.70;;;23.60;99.90;;;;;;5087030;28;20284;-83
2022/07/15 09:49:23;;;;;;;10.90;10.60;;;23.60;99.90;;;;;;5088223;28;20242;-83
2022/07/15 09:51:54;;;;;;;11.18;10.88;;;23.60;99.90;;;;;;5087914;28;20248;-83
2022/07/15 09:54:23;;;;;;;11.20;10.90;;;23.90;99.90;;;;;;5087168;28;20234;-83
2022/07/15 09:56:52;;;;;;;10.98;10.68;;;24.00;99.90;;;;;;5087512;28;20234;-83
2022/07/15 09:59:20;;;;;;;11.20;10.90;;;24.10;99.90;;;;;;5088427;28;20237;-82
2022/07/15 10:01:48;;;;;;;10.90;10.60;;;24.30;99.90;;;;;;5087438;28;20225;-83
2022/07/15 10:04:27;;;;;;;10.70;10.40;;;24.50;99.90;;;;;;5087335;28;20237;-83
2022/07/15 10:06:57;;;;;;;10.70;10.40;;;24.80;99.90;;;;;;5088409;28;20230;-83
2022/07/15 10:09:28;;;;;;;10.73;10.43;;;24.60;99.90;;;;;;5086379;28;20237;-83
2022/07/15 10:12:04;;;;;;;10.55;10.25;;;24.60;99.90;;;;;;5087784;28;20225;-83
2022/07/15 10:14:52;;;;;;;10.50;10.20;;;24.70;99.90;;;;;;5086483;28;20234;-83
2022/07/15 10:17:58;;;;;;;10.80;10.50;;;24.80;99.90;;;;;;5087165;28;20261;-83
2022/07/15 10:21:09;;;;;;;10.70;10.40;;;24.70;99.90;;;;;;5079208;28;20226;-83
2022/07/15 10:24:15;;;;;;;10.80;10.50;;;24.70;99.90;;;;;;5086611;28;20286;-83
2022/07/15 10:27:02;;;;;;;10.95;10.65;;;25.30;99.90;;;;;;5085345;28;20230;-83
2022/07/15 10:29:31;;;;;;;10.38;10.07;;;25.70;99.90;;;;;;5085781;28;20230;-83
2022/07/15 10:32:02;;;;;;;10.40;10.10;;;25.80;99.90;;;;;;5086292;28;20230;-84
2022/07/15 10:34:38;;;;;;;10.40;10.10;;;25.30;99.90;;;;;;5090014;28;20376;-84
2022/07/15 10:37:15;;;;;;;10.15;9.85;;;25.30;99.90;;;;;;5092942;28;20245;-84
2022/07/15 10:40:06;;;;;;;10.23;9.93;;;24.50;99.90;;;;;;5092945;28;20217;-83
2022/07/15 10:43:02;;;;;;;10.60;10.30;;;24.20;99.90;;;;;;5089660;28;20218;-83
2022/07/15 10:45:30;;;;;;;10.70;10.40;;;23.90;99.90;;;;;;5087826;28;20237;-83
2022/07/15 10:48:32;;;;;;;11.10;10.80;;;23.60;99.90;;;;;;5087680;28;20238;-83
2022/07/15 10:51:02;;;;;;;10.98;10.68;;;23.70;99.90;;;;;;5085168;28;20268;-83
2022/07/15 10:53:49;;;;;;;10.70;10.40;;;24.00;99.90;;;;;;5086452;28;20230;-83
2022/07/15 10:59:15;;;;;;;10.93;10.63;;;25.50;99.90;;;;;;5085083;28;20260;-83
2022/07/15 11:01:46;;;;;;;10.80;10.50;;;26.30;99.90;;;;;;5085924;28;20252;-83
2022/07/15 11:04:17;;;;;;;10.68;10.38;;;26.70;99.90;;;;;;5084019;28;20300;-82
2022/07/15 11:07:28;;;;;;;10.70;10.40;;;26.00;99.90;;;;;;5085282;28;20242;-82
2022/07/15 11:10:17;;;;;;;10.60;10.30;;;25.80;99.90;;;;;;5086676;28;20234;-83
2022/07/15 11:13:05;;;;;;;10.70;10.40;;;25.60;99.90;;;;;;5084898;28;20250;-83
2022/07/15 11:18:21;;;;;;;10.60;10.30;;;25.10;99.90;;;;;;5083951;28;20237;-83
2022/07/15 11:20:49;;;;;;;10.20;9.90;;;25.40;99.90;;;;;;5084798;28;21041;-83
2022/07/15 11:23:20;;;;;;;10.45;10.15;;;25.70;99.90;;;;;;5084327;28;20230;-84
2022/07/15 11:25:50;;;;;;;10.27;9.98;;;25.80;99.90;;;;;;5084976;28;20234;-83
2022/07/15 11:28:18;;;;;;;10.60;10.30;;;25.90;99.90;;;;;;5084257;28;20238;-83
2022/07/15 11:30:53;;;;;;;10.50;10.20;;;26.10;99.90;;;;;;5084578;28;20241;-83
2022/07/15 11:33:25;;;;;;;10.60;10.30;;;26.70;99.90;;;;;;5085092;28;20225;-84
2022/07/15 11:35:56;;;;;;;10.57;10.27;;;27.30;99.90;;;;;;5084461;28;20230;-84
2022/07/15 11:38:27;;;;;;;10.73;10.43;;;27.70;99.90;;;;;;5084568;28;20238;-83
2022/07/15 11:49:14;;;;;;;11.10;10.80;;;27.40;99.90;;;;;;5084855;28;20226;-83
2022/07/15 11:51:43;;;;;;;10.93;10.63;;;26.50;99.90;;;;;;5087031;28;20257;-83
2022/07/15 11:54:14;;;;;;;11.23;10.93;;;26.10;99.90;;;;;;5085319;28;20320;-83
2022/07/15 11:56:45;;;;;;;10.93;10.63;;;25.90;99.90;;;;;;5086314;28;20214;-82
2022/07/15 11:59:12;;;;;;;11.00;10.70;;;25.60;99.90;;;;;;5085202;28;20244;-82
2022/07/15 12:01:41;;;;;;;10.90;10.60;;;25.70;99.90;;;;;;5084302;28;20261;-82
2022/07/15 12:04:10;;;;;;;10.75;10.45;;;26.10;99.90;;;;;;5083477;28;20312;-82
2022/07/15 12:06:40;;;;;;;10.85;10.55;;;26.30;99.90;;;;;;5084077;28;20230;-82
2022/07/15 12:09:09;;;;;;;10.75;10.45;;;25.90;99.90;;;;;;5085154;28;20230;-82
2022/07/15 12:11:39;;;;;;;10.90;10.60;;;26.00;99.90;;;;;;5084786;28;20380;-82
2022/07/15 12:14:18;;;;;;;11.13;10.82;;;25.70;99.90;;;;;;5083952;28;20296;-83
2022/07/15 12:16:49;;;;;;;11.02;10.73;;;25.60;99.90;;;;;;5087152;28;20221;-83
2022/07/15 12:19:19;;;;;;;11.20;10.90;;;25.80;99.90;;;;;;5085968;28;20238;-83
2022/07/15 12:21:55;;;;;;;10.50;10.20;;;26.00;99.90;;;;;;5086373;28;20297;-84
2022/07/15 12:24:25;;;;;;;10.80;10.50;;;26.10;99.90;;;;;;5084873;28;20230;-83
2022/07/15 12:27:02;;;;;;;10.40;10.10;;;26.50;99.90;;;;;;5084484;28;20206;-83
2022/07/15 12:29:41;;;;;;;10.10;9.80;;;27.20;99.90;;;;;;5083339;28;20237;-83
2022/07/15 12:32:11;;;;;;;10.48;10.18;;;27.20;99.90;;;;;;5084061;28;20320;-83
2022/07/15 12:34:56;;;;;;;10.70;10.40;;;27.20;99.90;;;;;;5084384;28;20325;-83
2022/07/15 12:37:27;;;;;;;10.45;10.15;;;27.50;99.90;;;;;;5085057;28;20261;-83
2022/07/15 12:40:04;;;;;;;11.10;10.80;;;28.00;99.90;;;;;;5084521;28;20229;-83
2022/07/15 12:42:34;;;;;;;11.15;10.85;;;28.20;99.90;;;;;;5089731;28;20272;-83
2022/07/15 12:45:11;;;;;;;11.27;10.98;;;28.50;99.90;;;;;;5111063;22;20229;-78
2022/07/15 12:48:01;;;;;;;11.00;10.70;;;29.00;99.90;;;;;;5084299;28;20222;-77
2022/07/15 12:50:29;;;;;;;11.00;10.70;;;28.80;99.90;;;;;;5090022;28;20236;-79
2022/07/15 12:52:58;;;;;;;10.60;10.30;;;29.00;99.90;;;;;;5077002;28;20321;-78
2022/07/15 12:55:29;;;;;;;10.70;10.40;;;28.70;99.90;;;;;;5075961;28;20234;-79
2022/07/15 12:58:09;;;;;;;10.70;10.40;;;28.80;99.90;;;;;;5080527;28;20797;-78
2022/07/15 13:00:40;;;;;;;10.30;10.00;;;28.80;99.90;;;;;;5079642;28;20316;-78
2022/07/15 13:03:11;;;;;;;10.40;10.10;;;28.80;99.90;;;;;;5079296;28;20218;-79
2022/07/15 13:05:41;;;;;;;10.40;10.10;;;28.70;99.90;;;;;;5078876;28;20313;-78
2022/07/15 13:08:11;;;;;;;10.50;10.20;;;28.80;99.90;;;;;;5079053;28;20718;-78
2022/07/15 13:10:40;;;;;;;10.35;10.05;;;28.80;99.90;;;;;;5079311;28;20294;-78
2022/07/15 13:13:09;;;;;;;10.10;9.80;;;28.80;99.90;;;;;;5079653;28;20238;-80
2022/07/15 13:15:39;;;;;;;10.60;10.30;;;28.40;99.90;;;;;;5081973;28;20324;-79
2022/07/15 13:18:06;;;;;;;10.75;10.45;;;28.10;99.90;;;;;;5083299;28;20230;-80
2022/07/15 13:20:35;;;;;;;11.15;10.85;;;27.90;99.90;;;;;;5081996;28;20233;-79
2022/07/15 13:23:03;;;;;;;10.93;10.63;;;28.40;99.90;;;;;;5083478;28;20226;-79
2022/07/15 13:25:31;;;;;;;10.95;10.65;;;28.40;99.90;;;;;;5092527;28;20254;-79
2022/07/15 13:27:59;;;;;;;11.10;10.80;;;28.30;99.90;;;;;;5097304;28;20374;-79
2022/07/15 13:30:27;;;;;;;10.52;10.23;;;28.30;99.90;;;;;;5098774;28;20285;-78